createdAt,value
2023-01-17T00:02:01.033Z,4.80
2023-01-17T00:04:48.300Z,4.80
2023-01-17T00:07:36.258Z,4.80
2023-01-17T00:10:07.791Z,4.70
2023-01-17T00:12:36.745Z,4.60
2023-01-17T00:15:06.037Z,4.70
2023-01-17T00:17:34.427Z,4.70
2023-01-17T00:20:21.546Z,4.70
2023-01-17T00:23:07.189Z,4.70
2023-01-17T00:25:55.983Z,4.70
2023-01-17T00:28:23.788Z,4.70
2023-01-17T00:30:50.935Z,4.70
2023-01-17T00:33:18.843Z,4.70
2023-01-17T00:35:47.468Z,4.70
2023-01-17T00:38:16.454Z,4.80
2023-01-17T00:40:45.395Z,4.80
2023-01-17T00:43:32.641Z,4.70
2023-01-17T00:46:18.772Z,4.70
2023-01-17T00:49:04.915Z,4.70
2023-01-17T00:51:53.611Z,4.70
2023-01-17T00:54:39.447Z,4.70
2023-01-17T00:57:26.503Z,4.70
2023-01-17T01:00:12.529Z,4.80
2023-01-17T01:02:58.483Z,4.70
2023-01-17T01:05:44.627Z,4.70
2023-01-17T01:08:40.552Z,4.60
2023-01-17T01:11:30.493Z,4.60
2023-01-17T01:14:18.163Z,4.60
2023-01-17T01:17:03.783Z,4.60
2023-01-17T01:19:49.814Z,4.60
2023-01-17T01:22:35.777Z,4.70
2023-01-17T01:25:23.645Z,4.70
2023-01-17T01:28:09.582Z,4.80
2023-01-17T01:30:55.563Z,4.70
2023-01-17T01:33:22.882Z,4.70
2023-01-17T01:35:52.524Z,4.60
2023-01-17T01:38:22.400Z,4.70
2023-01-17T01:40:53.844Z,4.80
2023-01-17T01:43:40.840Z,4.70
2023-01-17T01:46:11.175Z,4.70
2023-01-17T01:48:42.670Z,4.70
2023-01-17T01:51:17.342Z,4.80
2023-01-17T01:53:50.212Z,4.80
2023-01-17T01:56:20.584Z,4.80
2023-01-17T01:58:52.005Z,4.80
2023-01-17T02:01:21.180Z,4.70
2023-01-17T02:03:50.347Z,4.80
2023-01-17T02:06:31.125Z,4.80
2023-01-17T02:09:03.513Z,4.80
2023-01-17T02:11:34.893Z,4.80
2023-01-17T02:14:03.200Z,4.70
2023-01-17T02:16:43.899Z,4.80
2023-01-17T02:19:44.991Z,4.80
2023-01-17T02:22:39.291Z,4.80
2023-01-17T02:25:22.383Z,4.80
2023-01-17T02:28:05.209Z,4.80
2023-01-17T02:30:40.621Z,4.80
2023-01-17T02:33:23.442Z,4.80
2023-01-17T02:35:59.765Z,4.80
2023-01-17T02:38:36.575Z,4.80
2023-01-17T02:41:07.962Z,4.80
2023-01-17T02:43:38.463Z,4.90
2023-01-17T02:46:09.760Z,4.80
2023-01-17T02:48:39.793Z,4.40
2023-01-17T02:51:25.415Z,4.20
2023-01-17T02:54:05.267Z,4.20
2023-01-17T02:56:46.050Z,4.10
2023-01-17T02:59:28.885Z,4.10
2023-01-17T03:02:08.454Z,4.00
2023-01-17T03:04:41.393Z,4.00
2023-01-17T03:07:16.369Z,3.80
2023-01-17T03:09:46.973Z,3.80
2023-01-17T03:12:15.541Z,3.70
2023-01-17T03:14:43.962Z,3.70
2023-01-17T03:17:13.663Z,3.90
2023-01-17T03:19:42.016Z,3.70
2023-01-17T03:22:10.753Z,3.50
2023-01-17T03:24:39.073Z,3.30
2023-01-17T03:27:07.349Z,3.30
2023-01-17T03:29:35.808Z,3.30
2023-01-17T03:32:04.465Z,3.20
2023-01-17T03:34:34.137Z,3.20
2023-01-17T03:37:02.574Z,3.00
2023-01-17T03:39:30.979Z,3.00
2023-01-17T03:41:59.355Z,2.90
2023-01-17T03:44:27.753Z,2.90
2023-01-17T03:46:55.972Z,2.90
2023-01-17T03:49:24.251Z,2.80
2023-01-17T03:51:53.893Z,2.80
2023-01-17T03:54:22.297Z,2.80
2023-01-17T03:56:50.859Z,2.80
2023-01-17T03:59:19.267Z,2.70
2023-01-17T04:01:47.873Z,2.60
2023-01-17T04:04:16.446Z,2.70
2023-01-17T04:06:44.793Z,2.70
2023-01-17T04:09:14.434Z,2.60
2023-01-17T04:11:43.123Z,2.70
2023-01-17T04:14:11.485Z,2.60
2023-01-17T04:16:40.051Z,2.60
2023-01-17T04:19:10.096Z,2.60
2023-01-17T04:21:38.560Z,2.50
2023-01-17T04:24:07.531Z,2.50
2023-01-17T04:26:37.268Z,2.50
2023-01-17T04:29:06.003Z,2.50
2023-01-17T04:31:34.678Z,2.50
2023-01-17T04:34:03.099Z,2.50
2023-01-17T04:36:31.625Z,2.50
2023-01-17T04:39:00.061Z,2.30
2023-01-17T04:41:28.770Z,2.50
2023-01-17T04:43:58.676Z,2.50
2023-01-17T04:46:27.097Z,2.60
2023-01-17T04:48:55.470Z,2.50
2023-01-17T04:51:24.187Z,2.50
2023-01-17T04:53:52.473Z,2.60
2023-01-17T04:56:20.971Z,2.40
2023-01-17T04:58:49.442Z,2.30
2023-01-17T05:01:19.281Z,2.30
2023-01-17T05:03:48.043Z,2.20
2023-01-17T05:06:16.329Z,2.20
2023-01-17T05:08:44.951Z,2.10
2023-01-17T05:11:13.906Z,2.10
2023-01-17T05:13:42.251Z,2.00
2023-01-17T05:16:10.647Z,2.10
2023-01-17T05:18:40.243Z,2.10
2023-01-17T05:21:08.832Z,2.10
2023-01-17T05:23:38.034Z,2.20
2023-01-17T05:26:06.513Z,2.10
2023-01-17T05:28:34.940Z,2.10
2023-01-17T05:31:03.559Z,2.10
2023-01-17T05:33:32.173Z,2.10
2023-01-17T05:36:01.764Z,2.10
2023-01-17T05:38:30.228Z,2.10
2023-01-17T05:41:00.957Z,2.10
2023-01-17T05:43:29.346Z,2.00
2023-01-17T05:45:57.820Z,2.00
2023-01-17T05:48:26.344Z,2.00
2023-01-17T05:50:54.983Z,2.00
2023-01-17T05:53:24.709Z,1.90
2023-01-17T05:55:53.076Z,1.90
2023-01-17T05:58:23.564Z,1.80
2023-01-17T06:00:52.288Z,1.80
2023-01-17T06:03:20.601Z,1.80
2023-01-17T06:05:50.228Z,1.70
2023-01-17T06:08:18.719Z,1.70
2023-01-17T06:10:48.668Z,1.60
2023-01-17T06:13:20.912Z,1.60
2023-01-17T06:15:49.699Z,1.60
2023-01-17T06:18:18.961Z,1.50
2023-01-17T06:20:47.369Z,1.50
2023-01-17T06:23:16.056Z,1.50
2023-01-17T06:25:45.547Z,1.50
2023-01-17T06:28:16.776Z,1.50
2023-01-17T06:30:45.432Z,1.40
2023-01-17T06:33:14.045Z,1.40
2023-01-17T06:35:48.913Z,1.40
2023-01-17T06:38:17.336Z,1.50
2023-01-17T06:40:46.042Z,1.40
2023-01-17T06:43:15.823Z,1.50
2023-01-17T06:45:44.079Z,1.40
2023-01-17T06:48:12.405Z,1.50
2023-01-17T06:50:41.010Z,1.50
2023-01-17T06:53:09.594Z,1.50
2023-01-17T06:55:40.436Z,1.50
2023-01-17T06:58:10.530Z,1.50
2023-01-17T07:00:41.052Z,1.40
2023-01-17T07:03:19.236Z,1.40
2023-01-17T07:05:47.859Z,1.40
2023-01-17T07:08:17.069Z,1.40
2023-01-17T07:10:45.650Z,1.40
2023-01-17T07:13:14.811Z,1.40
2023-01-17T07:15:44.609Z,1.40
2023-01-17T07:18:13.012Z,1.40
2023-01-17T07:20:43.955Z,1.40
2023-01-17T07:23:12.592Z,1.40
2023-01-17T07:25:40.980Z,1.40
2023-01-17T07:28:09.264Z,1.40
2023-01-17T07:30:37.925Z,1.40
2023-01-17T07:33:07.556Z,1.40
2023-01-17T07:35:37.235Z,1.30
2023-01-17T07:38:11.298Z,1.30
2023-01-17T07:40:42.325Z,1.30
2023-01-17T07:43:14.261Z,1.30
2023-01-17T07:45:43.599Z,1.30
2023-01-17T07:48:13.921Z,1.30
2023-01-17T07:50:42.220Z,1.20
2023-01-17T07:53:11.189Z,1.20
2023-01-17T07:55:39.583Z,1.10
2023-01-17T07:58:08.025Z,1.10
2023-01-17T08:00:36.659Z,1.00
2023-01-17T08:03:05.930Z,1.10
2023-01-17T08:05:35.544Z,1.00
2023-01-17T08:08:04.124Z,1.10
2023-01-17T08:10:32.670Z,1.10
2023-01-17T08:13:01.347Z,1.10
2023-01-17T08:15:29.803Z,1.10
2023-01-17T08:17:58.803Z,1.10
2023-01-17T08:20:28.216Z,1.20
2023-01-17T08:22:58.143Z,1.20
2023-01-17T08:25:26.993Z,1.10
2023-01-17T08:27:59.115Z,2.60
2023-01-17T08:30:28.109Z,3.60
2023-01-17T08:32:56.752Z,2.20
2023-01-17T08:35:25.206Z,1.80
2023-01-17T08:37:55.896Z,1.60
2023-01-17T08:40:25.943Z,1.50
2023-01-17T08:42:58.038Z,1.50
2023-01-17T08:45:27.523Z,1.40
2023-01-17T08:47:55.838Z,1.40
2023-01-17T08:50:26.159Z,1.40
2023-01-17T08:53:01.265Z,1.40
2023-01-17T08:55:31.194Z,1.30
2023-01-17T08:57:59.743Z,0.90
2023-01-17T09:00:29.958Z,0.90
2023-01-17T09:02:58.362Z,0.80
2023-01-17T09:05:27.002Z,0.80
2023-01-17T09:07:56.539Z,0.90
2023-01-17T09:10:25.114Z,0.90
2023-01-17T09:12:54.747Z,1.00
2023-01-17T09:15:23.213Z,1.00
2023-01-17T09:17:51.568Z,1.10
2023-01-17T09:20:20.166Z,1.10
2023-01-17T09:22:48.541Z,1.10
2023-01-17T09:25:17.092Z,1.10
2023-01-17T09:27:46.969Z,1.20
2023-01-17T09:30:17.487Z,1.20
2023-01-17T09:32:46.580Z,1.20
2023-01-17T09:35:14.999Z,1.30
2023-01-17T09:37:43.275Z,1.40
2023-01-17T09:40:15.705Z,1.50
2023-01-17T09:42:44.588Z,2.20
2023-01-17T09:45:18.334Z,2.10
2023-01-17T09:47:48.674Z,2.30
2023-01-17T09:50:26.375Z,2.40
2023-01-17T09:53:00.804Z,2.40
2023-01-17T09:55:35.274Z,2.50
2023-01-17T09:58:08.064Z,2.50
2023-01-17T10:00:51.710Z,2.60
2023-01-17T10:03:32.794Z,2.70
2023-01-17T10:06:20.265Z,3.10
2023-01-17T10:09:04.741Z,3.20
2023-01-17T10:11:44.040Z,3.10
2023-01-17T10:14:33.121Z,3.20
2023-01-17T10:17:10.545Z,3.40
2023-01-17T10:19:56.056Z,3.30
2023-01-17T10:22:42.733Z,3.30
2023-01-17T10:25:33.144Z,3.30
2023-01-17T10:28:06.398Z,3.30
2023-01-17T10:30:40.281Z,3.40
2023-01-17T10:33:16.673Z,3.40
2023-01-17T10:35:56.930Z,3.70
2023-01-17T10:38:31.870Z,3.60
2023-01-17T10:41:05.715Z,3.70
2023-01-17T10:43:45.501Z,3.80
2023-01-17T10:46:17.923Z,3.80
2023-01-17T10:48:49.647Z,4.00
2023-01-17T10:51:43.125Z,4.00
2023-01-17T10:54:22.932Z,4.20
2023-01-17T10:56:51.477Z,4.10
2023-01-17T10:59:30.960Z,4.30
2023-01-17T11:01:59.834Z,4.40
2023-01-17T11:04:36.662Z,4.30
2023-01-17T11:07:14.160Z,6.20
2023-01-17T11:09:43.978Z,5.10
2023-01-17T11:12:25.806Z,5.10
2023-01-17T11:15:03.755Z,5.20
2023-01-17T11:17:33.188Z,5.50
2023-01-17T11:20:21.363Z,5.30
2023-01-17T11:23:03.981Z,5.20
2023-01-17T11:25:35.029Z,6.30
2023-01-17T11:28:07.330Z,7.00
2023-01-17T11:30:36.083Z,6.60
2023-01-17T11:33:07.077Z,5.90
2023-01-17T11:35:38.886Z,6.40
2023-01-17T11:38:12.930Z,5.60
2023-01-17T11:40:42.545Z,5.60
2023-01-17T11:43:23.395Z,7.60
2023-01-17T11:46:15.880Z,7.80
2023-01-17T11:48:48.823Z,8.10
2023-01-17T11:51:25.233Z,7.00
2023-01-17T11:53:55.366Z,6.50
2023-01-17T11:56:33.225Z,7.40
2023-01-17T11:59:26.249Z,8.40
2023-01-17T12:02:19.789Z,7.60
2023-01-17T12:04:56.053Z,7.30
2023-01-17T12:07:32.671Z,7.10
2023-01-17T12:10:07.428Z,8.60
2023-01-17T12:13:08.695Z,8.10
2023-01-17T12:15:52.201Z,9.50
2023-01-17T12:18:34.602Z,8.60
2023-01-17T12:21:17.387Z,7.80
2023-01-17T12:24:15.726Z,7.70
2023-01-17T12:26:51.513Z,7.00
2023-01-17T12:29:39.882Z,7.90
2023-01-17T12:32:23.787Z,7.20
2023-01-17T12:34:57.188Z,8.20
2023-01-17T12:37:31.811Z,8.30
2023-01-17T12:40:06.179Z,9.10
2023-01-17T12:42:38.852Z,6.90
2023-01-17T12:45:11.044Z,6.10
2023-01-17T12:47:45.227Z,5.90
2023-01-17T12:50:22.397Z,5.70
2023-01-17T12:53:00.063Z,5.70
2023-01-17T12:55:40.626Z,5.70
2023-01-17T12:58:16.816Z,5.50
2023-01-17T13:00:48.141Z,5.50
2023-01-17T13:03:24.738Z,5.60
2023-01-17T13:05:54.220Z,5.60
2023-01-17T13:08:28.258Z,5.50
2023-01-17T13:11:01.267Z,5.50
2023-01-17T13:13:31.618Z,5.50
2023-01-17T13:16:04.462Z,5.50
2023-01-17T13:18:33.470Z,5.50
2023-01-17T13:21:28.270Z,5.50
2023-01-17T13:24:17.322Z,5.50
2023-01-17T13:27:03.559Z,5.40
2023-01-17T13:29:41.619Z,5.50
2023-01-17T13:32:26.118Z,5.50
2023-01-17T13:35:13.830Z,6.40
2023-01-17T13:38:00.633Z,5.80
2023-01-17T13:40:35.334Z,5.60
2023-01-17T13:43:06.741Z,5.40
2023-01-17T13:45:36.815Z,5.40
2023-01-17T13:48:41.463Z,5.40
2023-01-17T13:51:10.267Z,5.40
2023-01-17T13:53:56.906Z,5.40
2023-01-17T13:56:33.144Z,5.40
2023-01-17T13:59:05.074Z,5.40
2023-01-17T14:01:57.306Z,5.40
2023-01-17T14:04:46.303Z,5.40
2023-01-17T14:07:26.345Z,5.40
2023-01-17T14:09:55.023Z,5.40
2023-01-17T14:12:32.366Z,5.50
2023-01-17T14:15:05.766Z,5.50
2023-01-17T14:17:45.320Z,5.60
2023-01-17T14:20:44.241Z,5.60
2023-01-17T14:23:54.423Z,5.60
2023-01-17T14:26:37.231Z,5.50
2023-01-17T14:29:43.018Z,5.60
2023-01-17T14:32:14.452Z,5.60
2023-01-17T14:34:45.212Z,5.50
2023-01-17T14:37:25.487Z,5.50
2023-01-17T14:39:53.762Z,5.60
2023-01-17T14:42:24.357Z,5.60
2023-01-17T14:44:57.698Z,5.50
2023-01-17T14:47:30.651Z,5.50
2023-01-17T14:50:22.214Z,5.50
2023-01-17T14:53:07.313Z,5.50
2023-01-17T14:55:35.734Z,5.50
2023-01-17T14:58:04.165Z,5.40
2023-01-17T15:00:35.042Z,5.50
2023-01-17T15:03:05.052Z,5.50
2023-01-17T15:05:34.506Z,5.50
2023-01-17T15:08:03.261Z,5.50
2023-01-17T15:10:33.726Z,5.40
2023-01-17T15:13:09.129Z,5.40
2023-01-17T15:15:39.989Z,5.40
2023-01-17T15:18:23.145Z,5.30
2023-01-17T15:20:56.346Z,5.20
2023-01-17T15:23:29.933Z,5.20
2023-01-17T15:25:59.033Z,5.10
2023-01-17T15:28:27.585Z,5.10
2023-01-17T15:31:11.699Z,5.10
2023-01-17T15:33:43.674Z,5.20
2023-01-17T15:36:23.816Z,5.20
2023-01-17T15:38:59.612Z,5.10
2023-01-17T15:41:32.053Z,5.20
2023-01-17T15:44:00.345Z,5.20
2023-01-17T15:46:41.399Z,5.10
2023-01-17T15:49:17.992Z,5.00
2023-01-17T15:51:52.558Z,5.10
2023-01-17T15:54:34.036Z,5.10
2023-01-17T15:57:07.403Z,5.10
2023-01-17T15:59:45.376Z,4.90
2023-01-17T16:02:43.322Z,4.90
2023-01-17T16:05:41.807Z,4.80
2023-01-17T16:08:26.484Z,4.70
2023-01-17T16:10:58.110Z,4.50
2023-01-17T16:13:26.521Z,4.50
2023-01-17T16:15:54.833Z,4.50
2023-01-17T16:18:25.644Z,4.50
2023-01-17T16:20:59.396Z,4.50
2023-01-17T16:23:28.135Z,4.40
2023-01-17T16:25:56.392Z,4.40
2023-01-17T16:28:24.919Z,4.40
2023-01-17T16:30:54.304Z,4.30
2023-01-17T16:33:22.831Z,4.30
2023-01-17T16:35:54.693Z,4.20
2023-01-17T16:38:24.563Z,4.30
2023-01-17T16:40:54.042Z,4.20
2023-01-17T16:43:22.209Z,4.10
2023-01-17T16:45:53.932Z,4.20
2023-01-17T16:48:22.768Z,4.10
2023-01-17T16:50:53.050Z,4.10
2023-01-17T16:53:25.072Z,4.00
2023-01-17T16:55:56.454Z,4.00
2023-01-17T16:58:24.864Z,3.90
2023-01-17T17:00:55.506Z,3.90
2023-01-17T17:03:24.162Z,3.80
2023-01-17T17:06:00.108Z,3.80
2023-01-17T17:08:30.306Z,3.80
2023-01-17T17:11:09.130Z,3.70
2023-01-17T17:13:37.547Z,3.70
2023-01-17T17:16:11.821Z,3.60
2023-01-17T17:18:40.200Z,3.60
2023-01-17T17:21:09.459Z,3.40
2023-01-17T17:23:39.285Z,3.40
2023-01-17T17:26:08.043Z,3.40
2023-01-17T17:28:36.916Z,3.50
2023-01-17T17:31:07.789Z,3.40
2023-01-17T17:33:36.975Z,3.50
2023-01-17T17:36:10.803Z,3.30
2023-01-17T17:38:50.704Z,3.20
2023-01-17T17:41:20.885Z,3.20
2023-01-17T17:43:49.503Z,3.10
2023-01-17T17:46:18.234Z,3.10
2023-01-17T17:48:46.740Z,3.10
2023-01-17T17:51:26.196Z,3.10
2023-01-17T17:53:56.864Z,3.00
2023-01-17T17:56:25.370Z,2.90
2023-01-17T17:58:53.985Z,2.80
2023-01-17T18:01:24.490Z,2.90
2023-01-17T18:03:53.521Z,2.90
2023-01-17T18:06:22.620Z,2.80
2023-01-17T18:08:52.205Z,2.80
2023-01-17T18:11:23.128Z,2.80
2023-01-17T18:13:52.757Z,2.70
2023-01-17T18:16:22.996Z,2.90
2023-01-17T18:18:52.988Z,2.80
2023-01-17T18:21:25.292Z,2.90
2023-01-17T18:23:56.887Z,2.80
2023-01-17T18:26:29.315Z,2.70
2023-01-17T18:28:59.407Z,2.60
2023-01-17T18:31:29.347Z,2.70
2023-01-17T18:33:59.646Z,2.60
2023-01-17T18:36:28.911Z,2.60
2023-01-17T18:38:57.564Z,2.70
2023-01-17T18:41:29.896Z,3.10
2023-01-17T18:43:58.757Z,3.10
2023-01-17T18:46:28.655Z,2.80
2023-01-17T18:48:58.153Z,2.70
2023-01-17T18:51:27.455Z,2.70
2023-01-17T18:53:55.990Z,2.70
2023-01-17T18:56:26.291Z,2.70
2023-01-17T18:58:55.916Z,2.50
2023-01-17T19:01:26.114Z,2.60
2023-01-17T19:03:56.457Z,2.60
2023-01-17T19:06:26.890Z,2.60
2023-01-17T19:08:55.569Z,2.50
2023-01-17T19:11:26.589Z,2.50
2023-01-17T19:13:55.472Z,2.40
2023-01-17T19:16:25.677Z,2.50
2023-01-17T19:18:54.678Z,2.40
2023-01-17T19:21:24.462Z,2.40
2023-01-17T19:23:53.878Z,2.40
2023-01-17T19:26:23.939Z,2.40
2023-01-17T19:28:55.845Z,2.30
2023-01-17T19:31:25.576Z,2.30
2023-01-17T19:33:57.309Z,2.30
2023-01-17T19:36:27.532Z,2.30
2023-01-17T19:39:04.332Z,2.20
2023-01-17T19:41:34.762Z,2.20
2023-01-17T19:44:06.591Z,2.20
2023-01-17T19:46:35.915Z,2.20
2023-01-17T19:49:05.616Z,2.20
2023-01-17T19:51:34.484Z,2.20
2023-01-17T19:54:04.212Z,2.20
2023-01-17T19:56:32.809Z,2.20
2023-01-17T19:59:02.198Z,2.20
2023-01-17T20:01:34.257Z,2.10
2023-01-17T20:04:03.569Z,2.20
2023-01-17T20:06:33.926Z,2.20
2023-01-17T20:09:03.012Z,2.10
2023-01-17T20:11:31.724Z,2.10
2023-01-17T20:14:01.248Z,2.20
2023-01-17T20:16:32.389Z,2.10
2023-01-17T20:19:03.116Z,2.20
2023-01-17T20:21:32.382Z,2.20
2023-01-17T20:24:03.671Z,2.10
2023-01-17T20:26:35.726Z,2.10
2023-01-17T20:29:07.375Z,2.10
2023-01-17T20:31:38.639Z,2.10
2023-01-17T20:34:08.358Z,2.10
2023-01-17T20:36:36.983Z,2.10
2023-01-17T20:39:07.256Z,2.00
2023-01-17T20:41:37.460Z,2.00
2023-01-17T20:44:07.600Z,1.90
2023-01-17T20:46:41.485Z,2.00
2023-01-17T20:49:13.400Z,2.00
2023-01-17T20:51:44.319Z,1.90
2023-01-17T20:54:14.529Z,1.90
2023-01-17T20:56:43.579Z,1.90
2023-01-17T20:59:14.551Z,2.00
2023-01-17T21:01:45.134Z,1.80
2023-01-17T21:04:14.894Z,1.80
2023-01-17T21:06:44.653Z,1.90
2023-01-17T21:09:14.677Z,1.70
2023-01-17T21:11:43.383Z,1.70
2023-01-17T21:14:11.734Z,1.70
2023-01-17T21:16:40.393Z,1.70
2023-01-17T21:19:12.019Z,1.70
2023-01-17T21:21:41.132Z,1.70
2023-01-17T21:24:09.846Z,1.80
2023-01-17T21:26:39.944Z,1.70
2023-01-17T21:29:09.488Z,1.70
2023-01-17T21:31:40.244Z,1.60
2023-01-17T21:34:12.021Z,1.60
2023-01-17T21:36:42.598Z,1.60
2023-01-17T21:39:13.798Z,1.50
2023-01-17T21:41:42.747Z,1.50
2023-01-17T21:44:14.486Z,1.50
2023-01-17T21:46:42.764Z,1.50
2023-01-17T21:49:12.690Z,1.50
2023-01-17T21:52:01.306Z,1.50
2023-01-17T21:54:48.184Z,1.50
2023-01-17T21:57:35.612Z,1.40
2023-01-17T22:00:04.541Z,1.40
2023-01-17T22:02:33.098Z,1.40
2023-01-17T22:05:02.682Z,1.50
2023-01-17T22:07:31.130Z,1.40
2023-01-17T22:09:59.410Z,1.30
2023-01-17T22:12:28.233Z,1.30
2023-01-17T22:14:56.500Z,1.30
2023-01-17T22:17:24.924Z,1.30
2023-01-17T22:19:53.337Z,1.30
2023-01-17T22:22:23.005Z,1.30
2023-01-17T22:24:51.540Z,1.30
2023-01-17T22:27:20.499Z,1.30
2023-01-17T22:29:48.899Z,1.30
2023-01-17T22:32:17.314Z,1.30
2023-01-17T22:34:45.564Z,1.30
2023-01-17T22:37:14.577Z,1.30
2023-01-17T22:39:44.216Z,1.40
2023-01-17T22:42:13.394Z,1.40
2023-01-17T22:44:41.862Z,1.40
2023-01-17T22:47:10.287Z,1.60
2023-01-17T22:49:38.692Z,1.60
2023-01-17T22:52:07.377Z,1.90
2023-01-17T22:54:35.789Z,2.40
2023-01-17T22:57:06.320Z,2.60
2023-01-17T22:59:35.339Z,2.80
2023-01-17T23:02:03.865Z,3.00
2023-01-17T23:04:32.336Z,3.10
2023-01-17T23:07:00.730Z,3.10
2023-01-17T23:09:29.436Z,3.20
2023-01-17T23:11:57.759Z,3.30
2023-01-17T23:14:30.353Z,3.40
2023-01-17T23:17:17.458Z,3.40
2023-01-17T23:19:47.428Z,3.40
2023-01-17T23:22:19.442Z,3.40
2023-01-17T23:24:52.574Z,3.40
2023-01-17T23:27:40.173Z,3.50
2023-01-17T23:30:12.239Z,3.50
2023-01-17T23:32:41.436Z,3.50
2023-01-17T23:35:09.864Z,3.60
2023-01-17T23:37:55.467Z,3.50
2023-01-17T23:40:24.262Z,3.60
2023-01-17T23:43:10.317Z,3.60
2023-01-17T23:45:40.777Z,3.60
2023-01-17T23:48:10.729Z,3.70
2023-01-17T23:50:39.467Z,3.70
2023-01-17T23:53:08.215Z,3.70
2023-01-17T23:55:37.502Z,3.70
2023-01-17T23:58:06.141Z,3.80
